Welcome to Northern Hawkes Bay. New Zealand.
PWS Header
      nz Flag



Hit Counter


W3C Valid W3C Valid logo


    Wairoa

Select any of the Stations below to visit their websites.










Historic Data from Weather Underground
Select the location of interest below. Wairoa is the default. Please have patience, this Data is slow to load in.
Northern Hawkes Bay Historical Data
Daily Summary for April 4, 2017 Units:  Metric    English   Both
« Previous Day
Next Day »
Daily Weekly Monthly Yearly Custom
  High: Low: Average:
Temperature: 16.7 °C 14.2 °C 15.3 °C
Dew Point: 16.4 °C 13.5 °C 15 °C
Humidity: 99% 95% 98%
Wind Speed: 27.0km/h 0.0km/h 11.9km/h
Wind Gust: 46.5km/h - -
Wind- - SSE
Pressure: 1022.6 hPa 1017.2 hPa -
Precipitation: 57.9 mm    
Historical Graphs
 
 
Tabular Data for April 4, 2017
Time Temperature Dew Point Pressure Wind Wind Speed Wind Gust Humidity Rainfall Rate (Hourly) solar
00:03 15.5 °C 15.3 °C 1020.9 hPa West 11.1 km/h 25.6 km/h 99% 5.6 mm 0 W/m2
00:09 16.3 °C 16.0 °C 1020.9 hPa WSW 13.4 km/h 27.0 km/h 98% 5.3 mm 0 W/m2
00:15 16.4 °C 16.1 °C 1020.9 hPa SW 13.4 km/h 27.0 km/h 98% 5.1 mm 0 W/m2
00:21 16.2 °C 15.9 °C 1020.9 hPa SW 15.8 km/h 35.6 km/h 98% 4.8 mm 0 W/m2
00:27 15.7 °C 15.6 °C 1020.9 hPa WSW 9.7 km/h 35.6 km/h 99% 4.6 mm 0 W/m2
00:33 15.7 °C 15.6 °C 1020.9 hPa SW 6.1 km/h 19.5 km/h 99% 4.3 mm 0 W/m2
00:39 15.9 °C 15.8 °C 1020.9 hPa SW 8.7 km/h 18.3 km/h 99% 4.3 mm 0 W/m2
00:45 16.0 °C 15.7 °C 1021.2 hPa SW 9.7 km/h 18.3 km/h 98% 4.6 mm 0 W/m2
00:51 16.3 °C 16.0 °C 1021.2 hPa SW 19.5 km/h 28.0 km/h 98% 4.8 mm 0 W/m2
00:57 16.3 °C 16.0 °C 1020.9 hPa SW 13.4 km/h 28.0 km/h 98% 4.8 mm 0 W/m2
01:03 16.3 °C 16.0 °C 1020.9 hPa SSW 15.8 km/h 30.6 km/h 98% 4.8 mm 0 W/m2
01:09 16.2 °C 15.9 °C 1020.9 hPa SW 17.2 km/h 29.4 km/h 98% 4.8 mm 0 W/m2
01:15 16.0 °C 15.7 °C 1020.9 hPa SW 13.4 km/h 30.6 km/h 98% 4.8 mm 0 W/m2
01:21 16.0 °C 15.7 °C 1020.9 hPa SW 19.5 km/h 30.6 km/h 98% 4.8 mm 0 W/m2
01:27 15.5 °C 15.3 °C 1020.9 hPa WSW 15.8 km/h 25.6 km/h 99% 4.6 mm 0 W/m2
01:33 15.5 °C 15.3 °C 1020.9 hPa WSW 15.8 km/h 24.5 km/h 99% 4.6 mm 0 W/m2
01:39 15.5 °C 15.3 °C 1020.9 hPa SW 14.8 km/h 24.5 km/h 99% 4.3 mm 0 W/m2
01:45 15.4 °C 15.3 °C 1020.9 hPa WSW 11.1 km/h 27.0 km/h 99% 3.6 mm 0 W/m2
01:51 15.4 °C 15.3 °C 1020.9 hPa WSW 11.1 km/h 20.9 km/h 99% 3.0 mm 0 W/m2
01:57 15.5 °C 15.3 °C 1020.9 hPa WSW 5.0 km/h 19.5 km/h 99% 2.8 mm 0 W/m2
02:03 15.7 °C 15.6 °C 1020.5 hPa SW 9.7 km/h 18.3 km/h 99% 2.0 mm 0 W/m2
02:09 15.8 °C 15.7 °C 1020.5 hPa WSW 8.7 km/h 17.2 km/h 99% 2.0 mm 0 W/m2
02:21 15.5 °C 15.3 °C 1020.5 hPa West 9.7 km/h 23.3 km/h 99% 2.0 mm 0 W/m2
02:27 15.5 °C 15.3 °C 1020.5 hPa WSW 6.1 km/h 20.9 km/h 99% 2.3 mm 0 W/m2
02:33 15.5 °C 15.3 °C 1020.2 hPa WSW 3.5 km/h 17.2 km/h 99% 2.3 mm 0 W/m2
02:39 16.0 °C 15.7 °C 1020.2 hPa SW 12.2 km/h 19.5 km/h 98% 2.3 mm 0 W/m2
02:45 16.3 °C 16.0 °C 1019.9 hPa SW 13.4 km/h 27.0 km/h 98% 3.0 mm 0 W/m2
02:51 16.3 °C 16.0 °C 1019.9 hPa SW 14.8 km/h 27.0 km/h 98% 3.0 mm 0 W/m2
02:57 16.1 °C 15.8 °C 1019.9 hPa SSW 17.2 km/h 28.0 km/h 98% 3.0 mm 0 W/m2
03:03 16.0 °C 15.7 °C 1019.5 hPa SW 13.4 km/h 28.0 km/h 98% 3.3 mm 0 W/m2
03:09 16.1 °C 15.8 °C 1019.5 hPa SW 17.2 km/h 28.0 km/h 98% 3.3 mm 0 W/m2
03:15 16.1 °C 15.8 °C 1019.5 hPa SSW 12.2 km/h 28.0 km/h 98% 3.0 mm 0 W/m2
03:21 16.1 °C 15.8 °C 1019.5 hPa SSW 15.8 km/h 25.6 km/h 98% 3.0 mm 0 W/m2
03:27 16.0 °C 15.7 °C 1019.5 hPa SSW 18.3 km/h 27.0 km/h 98% 3.0 mm 0 W/m2
03:33 16.1 °C 15.8 °C 1019.5 hPa SSW 13.4 km/h 28.0 km/h 98% 2.8 mm 0 W/m2
03:39 16.1 °C 15.8 °C 1019.5 hPa SSW 19.5 km/h 28.0 km/h 98% 2.3 mm 0 W/m2
03:45 16.0 °C 15.7 °C 1019.5 hPa SW 13.4 km/h 28.0 km/h 98% 2.3 mm 0 W/m2
03:51 16.0 °C 15.7 °C 1019.5 hPa SW 9.7 km/h 27.0 km/h 98% 2.8 mm 0 W/m2
03:57 16.3 °C 16.0 °C 1019.5 hPa SSW 7.2 km/h 24.5 km/h 98% 3.0 mm 0 W/m2
04:03 16.5 °C 16.2 °C 1019.5 hPa South 8.7 km/h 20.9 km/h 98% 3.3 mm 0 W/m2
04:09 16.5 °C 16.2 °C 1019.5 hPa South 8.7 km/h 20.9 km/h 98% 3.6 mm 0 W/m2
04:15 16.6 °C 16.3 °C 1019.5 hPa SSW 12.2 km/h 17.2 km/h 98% 3.8 mm 0 W/m2
04:27 16.5 °C 16.2 °C 1019.5 hPa SSW 11.1 km/h 18.3 km/h 98% 4.3 mm 0 W/m2
04:33 16.4 °C 16.1 °C 1019.9 hPa South 13.4 km/h 20.9 km/h 98% 4.3 mm 0 W/m2
04:39 16.6 °C 16.3 °C 1019.9 hPa South 11.1 km/h 20.9 km/h 98% 3.8 mm 0 W/m2
04:45 16.6 °C 16.3 °C 1019.9 hPa SSW 7.2 km/h 17.2 km/h 98% 3.8 mm 0 W/m2
04:51 16.6 °C 16.3 °C 1019.9 hPa SSW 3.5 km/h 15.8 km/h 98% 3.6 mm 0 W/m2
04:57 16.7 °C 16.4 °C 1019.5 hPa Calm   11.1 km/h 98% 3.0 mm 0 W/m2
05:03 16.7 °C 16.4 °C 1019.5 hPa SSE 9.7 km/h 19.5 km/h 98% 3.3 mm 0 W/m2
05:09 16.7 °C 16.4 °C 1019.5 hPa South 11.1 km/h 19.5 km/h 98% 3.0 mm 0 W/m2
05:15 16.7 °C 16.4 °C 1019.5 hPa SSE 8.7 km/h 20.9 km/h 98% 3.0 mm 0 W/m2
05:21 16.6 °C 16.3 °C 1019.9 hPa SE 3.5 km/h 20.9 km/h 98% 2.3 mm 0 W/m2
05:27 16.6 °C 16.3 °C 1019.5 hPa SSE 13.4 km/h 19.5 km/h 98% 2.0 mm 0 W/m2
05:33 16.5 °C 16.2 °C 1019.9 hPa SSE 14.8 km/h 24.5 km/h 98% 2.0 mm 0 W/m2
05:39 16.5 °C 16.2 °C 1019.9 hPa SSE 8.7 km/h 24.5 km/h 98% 2.0 mm 0 W/m2
05:45 16.5 °C 16.2 °C 1019.5 hPa South 15.8 km/h 23.3 km/h 98% 2.0 mm 0 W/m2
05:51 16.4 °C 16.1 °C 1019.5 hPa South 18.3 km/h 27.0 km/h 98% 1.8 mm 0 W/m2
05:57 16.4 °C 16.1 °C 1019.5 hPa South 9.7 km/h 27.0 km/h 98% 1.8 mm 0 W/m2
06:03 16.4 °C 16.1 °C 1019.9 hPa SSE 9.7 km/h 27.0 km/h 98% 0.5 mm 0 W/m2
06:09 16.3 °C 16.0 °C 1019.9 hPa SSE 19.5 km/h 27.0 km/h 98% 0.5 mm 0 W/m2
06:15 16.3 °C 16.0 °C 1019.5 hPa SSE 7.2 km/h 28.0 km/h 98% 0.3 mm 0 W/m2
06:21 16.2 °C 15.9 °C 1019.9 hPa SSE 13.4 km/h 30.6 km/h 98% 0.5 mm 0 W/m2
06:27 16.3 °C 16.0 °C 1019.9 hPa SSE 18.3 km/h 30.6 km/h 98% 0.5 mm 0 W/m2
06:33 16.2 °C 15.9 °C 1020.2 hPa SSE 13.4 km/h 29.4 km/h 98% 0.5 mm 0 W/m2
06:39 16.2 °C 15.9 °C 1020.2 hPa SE 11.1 km/h 21.9 km/h 98% 0.5 mm 0 W/m2
07:01 16.1 °C 15.8 °C 1020.9 hPa SSE 15.8 km/h 24.5 km/h 98% 0.5 mm 1 W/m2
07:07 16.1 °C 15.8 °C 1020.5 hPa SSE 8.7 km/h 28.0 km/h 98% 0.5 mm 9 W/m2
07:13 16.0 °C 15.7 °C 1020.5 hPa SE 14.8 km/h 28.0 km/h 98% 1.3 mm 15 W/m2
07:19 16.0 °C 15.7 °C 1020.2 hPa SSE 9.7 km/h 29.4 km/h 98% 1.3 mm 33 W/m2
07:25 16.0 °C 15.7 °C 1020.5 hPa SE 13.4 km/h 25.6 km/h 98% 1.8 mm 27 W/m2
07:31 15.9 °C 15.8 °C 1020.9 hPa SSE 12.2 km/h 29.4 km/h 99% 2.0 mm 26 W/m2
07:37 15.7 °C 15.6 °C 1020.5 hPa SE 9.7 km/h 27.0 km/h 99% 2.0 mm 53 W/m2
07:43 15.9 °C 15.8 °C 1020.9 hPa SE 14.8 km/h 27.0 km/h 99% 2.0 mm 45 W/m2
07:49 15.7 °C 15.6 °C 1020.9 hPa SE 9.7 km/h 29.4 km/h 99% 2.0 mm 22 W/m2
07:55 15.9 °C 15.8 °C 1020.9 hPa SSE 12.2 km/h 28.0 km/h 99% 2.0 mm 33 W/m2
08:01 15.8 °C 15.7 °C 1020.9 hPa SE 9.7 km/h 29.4 km/h 99% 1.8 mm 33 W/m2
08:07 15.8 °C 15.7 °C 1021.2 hPa SSE 13.4 km/h 27.0 km/h 99% 1.8 mm 32 W/m2
08:13 15.8 °C 15.7 °C 1020.9 hPa SSE 8.7 km/h 24.5 km/h 99% 1.8 mm 42 W/m2
08:19 16.0 °C 15.7 °C 1021.2 hPa SSE 12.2 km/h 25.6 km/h 98% 1.5 mm 36 W/m2
08:25 16.0 °C 15.7 °C 1021.2 hPa SE 19.5 km/h 34.3 km/h 98% 1.5 mm 29 W/m2
08:31 15.6 °C 15.4 °C 1021.6 hPa ESE 8.7 km/h 34.3 km/h 99% 1.8 mm 32 W/m2
08:37 15.7 °C 15.6 °C 1021.6 hPa SE 3.5 km/h 25.6 km/h 99% 2.3 mm 47 W/m2
08:43 15.7 °C 15.6 °C 1021.6 hPa SE 14.8 km/h 18.3 km/h 99% 3.0 mm 40 W/m2
08:49 15.9 °C 15.8 °C 1021.6 hPa SSE 12.2 km/h 25.6 km/h 99% 4.3 mm 48 W/m2
08:55 15.9 °C 15.8 °C 1021.9 hPa SSE 18.3 km/h 29.4 km/h 99% 4.8 mm 50 W/m2
09:01 15.7 °C 15.6 °C 1021.9 hPa SSE 17.2 km/h 31.7 km/h 99% 5.3 mm 58 W/m2
09:07 15.7 °C 15.6 °C 1021.6 hPa SSE 17.2 km/h 31.7 km/h 99% 5.3 mm 79 W/m2
09:13 15.7 °C 15.6 °C 1021.6 hPa SSE 19.5 km/h 33.1 km/h 99% 5.6 mm 63 W/m2
09:19 15.7 °C 15.6 °C 1021.9 hPa SSE 15.8 km/h 33.1 km/h 99% 5.6 mm 71 W/m2
09:25 15.7 °C 15.6 °C 1021.6 hPa SSE 9.7 km/h 30.6 km/h 99% 6.1 mm 53 W/m2
09:31 15.7 °C 15.6 °C 1021.6 hPa SSE 13.4 km/h 30.6 km/h 99% 6.1 mm 57 W/m2
09:37 15.6 °C 15.4 °C 1021.6 hPa South 12.2 km/h 37.8 km/h 99% 5.1 mm 84 W/m2
09:43 15.5 °C 15.3 °C 1021.6 hPa South 15.8 km/h 30.6 km/h 99% 5.3 mm 70 W/m2
09:49 15.4 °C 15.3 °C 1021.6 hPa South 21.9 km/h 33.1 km/h 99% 4.3 mm 97 W/m2
09:55 15.5 °C 15.3 °C 1021.9 hPa SSE 20.9 km/h 37.8 km/h 99% 3.8 mm 59 W/m2
10:01 15.6 °C 15.4 °C 1021.9 hPa SSE 8.7 km/h 37.8 km/h 99% 3.3 mm 86 W/m2
10:07 15.6 °C 15.4 °C 1022.2 hPa SSE 20.9 km/h 35.6 km/h 99% 3.3 mm 89 W/m2
10:13 15.5 °C 15.3 °C 1021.9 hPa SSE 19.5 km/h 35.6 km/h 99% 3.0 mm 84 W/m2
10:19 15.2 °C 15.1 °C 1022.2 hPa South 17.2 km/h 34.3 km/h 99% 2.8 mm 107 W/m2
10:25 15.3 °C 15.2 °C 1022.2 hPa SSE 17.2 km/h 34.3 km/h 99% 2.8 mm 99 W/m2
10:31 15.3 °C 15.2 °C 1022.2 hPa SSE 20.9 km/h 34.3 km/h 99% 2.3 mm 63 W/m2
10:37 15.1 °C 14.9 °C 1022.2 hPa SSE 27.0 km/h 37.8 km/h 99% 3.0 mm 102 W/m2
10:43 15.1 °C 14.9 °C 1022.2 hPa SSE 17.2 km/h 37.8 km/h 99% 2.3 mm 115 W/m2
10:49 14.9 °C 14.8 °C 1022.2 hPa SSE 12.2 km/h 35.6 km/h 99% 2.8 mm 114 W/m2
10:55 14.8 °C 14.7 °C 1022.6 hPa SSE 20.9 km/h 41.7 km/h 99% 2.8 mm 133 W/m2
11:01 14.9 °C 14.8 °C 1022.6 hPa SSE 15.8 km/h 41.7 km/h 99% 2.8 mm 133 W/m2
11:07 14.8 °C 14.7 °C 1022.6 hPa South 20.9 km/h 34.3 km/h 99% 2.8 mm 124 W/m2
11:13 15.0 °C 14.8 °C 1022.6 hPa SSE 11.1 km/h 34.3 km/h 99% 2.3 mm 116 W/m2
11:19 14.9 °C 14.8 °C 1022.6 hPa SE 19.5 km/h 29.4 km/h 99% 2.0 mm 113 W/m2
11:25 15.1 °C 14.8 °C 1022.6 hPa SE 20.9 km/h 35.6 km/h 98% 2.0 mm 149 W/m2
11:31 15.2 °C 14.9 °C 1022.6 hPa SE 9.7 km/h 35.6 km/h 98% 1.8 mm 145 W/m2
11:37 15.2 °C 14.7 °C 1022.2 hPa SSE 15.8 km/h 30.6 km/h 97% 1.3 mm 140 W/m2
11:43 15.2 °C 14.7 °C 1022.2 hPa SSE 13.4 km/h 34.3 km/h 97% 1.3 mm 110 W/m2
11:49 15.2 °C 14.7 °C 1022.2 hPa SSE 15.8 km/h 34.3 km/h 97% 1.3 mm 103 W/m2
11:55 15.3 °C 15.0 °C 1021.9 hPa SSE 17.2 km/h 28.0 km/h 98% 1.3 mm 128 W/m2
12:01 15.2 °C 14.9 °C 1021.9 hPa SSE 24.5 km/h 37.8 km/h 98% 1.5 mm 106 W/m2
12:07 15.2 °C 14.9 °C 1021.9 hPa SSE 20.9 km/h 37.8 km/h 98% 1.5 mm 115 W/m2
12:13 15.2 °C 14.9 °C 1022.2 hPa SSE 13.4 km/h 36.7 km/h 98% 1.5 mm 87 W/m2
12:19 15.0 °C 14.7 °C 1022.2 hPa SSE 8.7 km/h 35.6 km/h 98% 1.3 mm 70 W/m2
12:25 15.1 °C 14.6 °C 1021.9 hPa South 23.3 km/h 39.3 km/h 97% 1.3 mm 68 W/m2
12:33 15.2 °C 14.7 °C 1022.2 hPa SSE 13.4 km/h 35.6 km/h 97% 1.3 mm 80 W/m2
12:39 15.1 °C 14.6 °C 1021.9 hPa SSE 21.9 km/h 46.5 km/h 97% 1.8 mm 107 W/m2
12:45 15.1 °C 14.6 °C 1022.2 hPa SE 12.2 km/h 46.5 km/h 97% 2.0 mm 93 W/m2
12:51 14.9 °C 14.8 °C 1021.9 hPa SE 11.1 km/h 33.1 km/h 99% 2.3 mm 86 W/m2
12:57 15.0 °C 14.7 °C 1021.9 hPa SSE 18.3 km/h 33.1 km/h 98% 2.3 mm 97 W/m2
13:03 15.0 °C 14.7 °C 1021.9 hPa SSE 15.8 km/h 31.7 km/h 98% 2.0 mm 99 W/m2
13:09 15.1 °C 14.6 °C 1021.9 hPa South 15.8 km/h 31.7 km/h 97% 1.8 mm 73 W/m2
13:15 14.7 °C 14.2 °C 1021.6 hPa SSE 19.5 km/h 31.7 km/h 97% 2.3 mm 88 W/m2
13:21 14.8 °C 14.5 °C 1021.6 hPa SSE 14.8 km/h 30.6 km/h 98% 2.3 mm 97 W/m2
13:27 14.9 °C 14.4 °C 1021.6 hPa SSE 11.1 km/h 34.3 km/h 97% 2.8 mm 105 W/m2
13:33 14.9 °C 14.4 °C 1021.6 hPa SSE 19.5 km/h 34.3 km/h 97% 3.3 mm 87 W/m2
13:39 14.8 °C 14.3 °C 1021.6 hPa SSE 15.8 km/h 40.4 km/h 97% 3.0 mm 99 W/m2
13:45 14.8 °C 14.3 °C 1021.9 hPa SE 15.8 km/h 40.4 km/h 97% 2.3 mm 87 W/m2
13:51 14.8 °C 14.3 °C 1021.6 hPa ESE 6.1 km/h 29.4 km/h 97% 2.3 mm 64 W/m2
13:57 14.7 °C 14.1 °C 1021.9 hPa ESE 11.1 km/h 34.3 km/h 96% 2.3 mm 85 W/m2
14:03 14.7 °C 14.1 °C 1021.9 hPa SE 17.2 km/h 34.3 km/h 96% 2.3 mm 56 W/m2
14:09 14.3 °C 13.5 °C 1021.9 hPa SSE 13.4 km/h 31.7 km/h 95% 2.8 mm 80 W/m2
14:15 14.5 °C 13.7 °C 1021.9 hPa SE 11.1 km/h 31.7 km/h 95% 2.3 mm 47 W/m2
14:21 14.5 °C 13.9 °C 1021.6 hPa ESE 13.4 km/h 29.4 km/h 96% 2.8 mm 61 W/m2
14:27 14.5 °C 13.9 °C 1021.6 hPa SE 11.1 km/h 40.4 km/h 96% 2.8 mm 64 W/m2
14:33 14.5 °C 13.9 °C 1021.9 hPa SE 7.2 km/h 24.5 km/h 96% 2.0 mm 54 W/m2
14:39 14.5 °C 13.9 °C 1021.6 hPa SSE 8.7 km/h 21.9 km/h 96% 2.3 mm 55 W/m2
14:45 14.5 °C 13.9 °C 1021.6 hPa SSE 8.7 km/h 28.0 km/h 96% 2.3 mm 60 W/m2
14:51 14.5 °C 14.1 °C 1021.6 hPa SE 19.5 km/h 28.0 km/h 97% 2.3 mm 33 W/m2
14:57 14.6 °C 14.1 °C 1021.2 hPa SE 15.8 km/h 24.5 km/h 97% 2.3 mm 32 W/m2
15:09 14.4 °C 13.9 °C 1020.9 hPa SE 14.8 km/h 27.0 km/h 97% 2.0 mm 49 W/m2
15:21 14.4 °C 13.9 °C 1020.9 hPa SE 9.7 km/h 25.6 km/h 97% 2.0 mm 41 W/m2
15:27 14.5 °C 14.2 °C 1020.9 hPa ESE 9.7 km/h 24.5 km/h 98% 1.8 mm 36 W/m2
15:33 14.6 °C 14.3 °C 1020.9 hPa SE 7.2 km/h 28.0 km/h 98% 1.5 mm 47 W/m2
15:39 14.6 °C 14.1 °C 1020.9 hPa SSE 8.7 km/h 28.0 km/h 97% 1.3 mm 39 W/m2
15:45 14.7 °C 14.2 °C 1020.9 hPa SE 7.2 km/h 24.5 km/h 97% 1.5 mm 45 W/m2
15:57 14.6 °C 14.1 °C 1020.9 hPa SE 14.8 km/h 29.4 km/h 97% 1.3 mm 17 W/m2
16:03 14.2 °C 13.7 °C 1020.9 hPa ESE 11.1 km/h 25.6 km/h 97% 1.5 mm 31 W/m2
16:09 14.4 °C 13.9 °C 1020.5 hPa SE 12.2 km/h 27.0 km/h 97% 1.8 mm 33 W/m2
16:15 14.5 °C 14.1 °C 1020.9 hPa SE 5.0 km/h 27.0 km/h 97% 1.5 mm 28 W/m2
16:21 14.7 °C 14.2 °C 1020.9 hPa SE 7.2 km/h 21.9 km/h 97% 1.5 mm 14 W/m2
16:27 14.7 °C 14.2 °C 1020.9 hPa ESE 8.7 km/h 25.6 km/h 97% 1.8 mm 13 W/m2
16:33 14.7 °C 14.2 °C 1021.2 hPa ESE 20.9 km/h 33.1 km/h 97% 2.0 mm 13 W/m2
16:39 14.3 °C 13.8 °C 1021.2 hPa SE 7.2 km/h 33.1 km/h 97% 2.3 mm 16 W/m2
16:45 14.2 °C 13.6 °C 1021.2 hPa SE 6.1 km/h 23.3 km/h 96% 2.0 mm 17 W/m2
16:51 14.3 °C 13.7 °C 1021.2 hPa ESE 7.2 km/h 21.9 km/h 96% 2.0 mm 15 W/m2
16:57 14.5 °C 14.1 °C 1021.2 hPa ESE 7.2 km/h 21.9 km/h 97% 3.0 mm 6 W/m2
17:03 14.4 °C 13.9 °C 1021.2 hPa ESE 8.7 km/h 18.3 km/h 97% 2.8 mm 13 W/m2
17:09 14.4 °C 14.1 °C 1021.2 hPa ESE 11.1 km/h 18.3 km/h 98% 3.0 mm 8 W/m2
17:15 14.3 °C 14.0 °C 1021.2 hPa ESE 5.0 km/h 18.3 km/h 98% 3.0 mm 4 W/m2
17:21 14.4 °C 14.1 °C 1020.9 hPa East 9.7 km/h 17.2 km/h 98% 3.3 mm 4 W/m2
17:27 14.4 °C 14.1 °C 1020.9 hPa ESE 7.2 km/h 17.2 km/h 98% 3.0 mm 1 W/m2
17:33 14.5 °C 14.3 °C 1020.9 hPa ESE 15.8 km/h 20.9 km/h 99% 3.0 mm 4 W/m2
17:39 14.3 °C 14.0 °C 1020.9 hPa ESE 11.1 km/h 20.9 km/h 98% 3.0 mm 4 W/m2
17:45 14.4 °C 13.9 °C 1020.9 hPa ESE 9.7 km/h 25.6 km/h 97% 3.0 mm 1 W/m2
17:51 14.4 °C 13.9 °C 1020.5 hPa East 11.1 km/h 25.6 km/h 97% 2.8 mm 0 W/m2
17:57 14.5 °C 14.1 °C 1020.5 hPa East 7.2 km/h 21.9 km/h 97% 1.8 mm 0 W/m2
18:03 14.5 °C 14.1 °C 1020.5 hPa SE 8.7 km/h 21.9 km/h 97% 1.5 mm 0 W/m2
18:09 14.6 °C 14.1 °C 1020.9 hPa ESE 12.2 km/h 19.5 km/h 97% 1.3 mm 0 W/m2
18:15 14.7 °C 14.2 °C 1020.5 hPa ESE 7.2 km/h 20.9 km/h 97% 1.3 mm 0 W/m2
18:21 14.8 °C 14.5 °C 1020.5 hPa SE 11.1 km/h 28.0 km/h 98% 1.0 mm 0 W/m2
18:27 14.9 °C 14.6 °C 1020.5 hPa SSE 12.2 km/h 24.5 km/h 98% 1.0 mm 0 W/m2
18:33 14.7 °C 14.4 °C 1020.5 hPa SSE 9.7 km/h 25.6 km/h 98% 1.0 mm 0 W/m2
18:39 14.7 °C 14.4 °C 1020.9 hPa SE 14.8 km/h 25.6 km/h 98% 0.5 mm 0 W/m2
18:45 14.6 °C 14.3 °C 1020.9 hPa SE 9.7 km/h 29.4 km/h 98% 0.5 mm 0 W/m2
18:51 14.6 °C 14.4 °C 1020.5 hPa SE 8.7 km/h 29.4 km/h 99% 1.0 mm 0 W/m2
18:57 14.6 °C 14.4 °C 1020.5 hPa SE 7.2 km/h 24.5 km/h 99% 1.5 mm 0 W/m2
19:03 14.6 °C 14.4 °C 1020.5 hPa ESE 5.0 km/h 19.5 km/h 99% 1.8 mm 0 W/m2
19:09 14.6 °C 14.4 °C 1020.9 hPa ESE 3.5 km/h 12.2 km/h 99% 2.0 mm 0 W/m2
19:15 14.6 °C 14.4 °C 1020.5 hPa ESE 7.2 km/h 14.8 km/h 99% 1.8 mm 0 W/m2
19:21 14.6 °C 14.4 °C 1020.5 hPa ESE 6.1 km/h 20.9 km/h 99% 2.0 mm 0 W/m2
19:27 14.6 °C 14.4 °C 1020.5 hPa ESE 7.2 km/h 20.9 km/h 99% 2.0 mm 0 W/m2
19:33 14.4 °C 14.3 °C 1020.5 hPa ESE 2.6 km/h 21.9 km/h 99% 1.8 mm 0 W/m2
19:39 14.3 °C 14.2 °C 1020.5 hPa ESE 14.8 km/h 19.5 km/h 99% 2.0 mm 0 W/m2
19:45 14.3 °C 14.2 °C 1020.9 hPa ESE 6.1 km/h 19.5 km/h 99% 2.3 mm 0 W/m2
19:51 14.4 °C 14.3 °C 1020.9 hPa ESE 7.2 km/h 18.3 km/h 99% 2.0 mm 0 W/m2
19:57 14.4 °C 14.3 °C 1020.5 hPa ESE 6.1 km/h 13.4 km/h 99% 1.5 mm 0 W/m2
20:03 14.4 °C 14.3 °C 1020.5 hPa ESE 5.0 km/h 14.8 km/h 99% 1.3 mm 0 W/m2
20:09 14.4 °C 14.3 °C 1020.2 hPa SE 6.1 km/h 17.2 km/h 99% 1.3 mm 0 W/m2
20:15 14.4 °C 14.3 °C 1020.5 hPa SE 7.2 km/h 17.2 km/h 99% 1.3 mm 0 W/m2
20:21 14.4 °C 14.3 °C 1020.2 hPa ESE 9.7 km/h 15.8 km/h 99% 1.3 mm 0 W/m2
20:27 14.4 °C 14.3 °C 1020.5 hPa ESE 6.1 km/h 18.3 km/h 99% 1.5 mm 0 W/m2
20:33 14.6 °C 14.4 °C 1020.5 hPa SE 2.6 km/h 18.3 km/h 99% 1.5 mm 0 W/m2
20:39 14.6 °C 14.4 °C 1020.5 hPa SE 5.0 km/h 15.8 km/h 99% 1.5 mm 0 W/m2
20:45 14.6 °C 14.4 °C 1020.5 hPa SE 7.2 km/h 19.5 km/h 99% 1.5 mm 0 W/m2
20:51 14.6 °C 14.4 °C 1020.5 hPa SE 8.7 km/h 20.9 km/h 99% 1.8 mm 0 W/m2
20:57 14.5 °C 14.3 °C 1020.5 hPa SE 3.5 km/h 20.9 km/h 99% 1.8 mm 0 W/m2
21:03 14.6 °C 14.4 °C 1020.2 hPa SE 11.1 km/h 25.6 km/h 99% 2.0 mm 0 W/m2
21:09 14.6 °C 14.4 °C 1020.2 hPa SE 3.5 km/h 25.6 km/h 99% 2.0 mm 0 W/m2
21:15 14.7 °C 14.6 °C 1020.2 hPa ESE 1.1 km/h 18.3 km/h 99% 1.8 mm 0 W/m2
21:21 14.7 °C 14.6 °C 1020.2 hPa ESE 7.2 km/h 23.3 km/h 99% 1.8 mm 0 W/m2
21:27 14.7 °C 14.6 °C 1019.9 hPa SE 8.7 km/h 23.3 km/h 99% 1.5 mm 0 W/m2
21:33 14.7 °C 14.6 °C 1019.5 hPa SE 7.2 km/h 24.5 km/h 99% 1.5 mm 0 W/m2
21:39 14.6 °C 14.4 °C 1019.5 hPa SSE 7.2 km/h 20.9 km/h 99% 1.8 mm 0 W/m2
21:45 14.6 °C 14.4 °C 1019.5 hPa ESE 2.6 km/h 20.9 km/h 99% 1.5 mm 0 W/m2
21:51 14.7 °C 14.6 °C 1019.5 hPa SE 9.7 km/h 19.5 km/h 99% 1.3 mm 0 W/m2
21:57 14.8 °C 14.7 °C 1019.5 hPa SSE 13.4 km/h 23.3 km/h 99% 1.5 mm 0 W/m2
22:03 14.7 °C 14.6 °C 1019.5 hPa SSE 7.2 km/h 24.5 km/h 99% 1.3 mm 0 W/m2
22:09 14.9 °C 14.8 °C 1019.5 hPa SSE 8.7 km/h 18.3 km/h 99% 1.3 mm 0 W/m2
22:15 14.8 °C 14.7 °C 1019.2 hPa SSE 11.1 km/h 18.3 km/h 99% 1.5 mm 0 W/m2
22:21 14.8 °C 14.7 °C 1019.2 hPa SSE 8.7 km/h 29.4 km/h 99% 1.8 mm 0 W/m2
22:27 15.0 °C 14.8 °C 1018.8 hPa South 8.7 km/h 21.9 km/h 99% 1.8 mm 0 W/m2
22:33 15.0 °C 14.8 °C 1018.8 hPa South 12.2 km/h 24.5 km/h 99% 2.0 mm 0 W/m2
22:39 15.0 °C 14.8 °C 1018.8 hPa South 12.2 km/h 25.6 km/h 99% 1.8 mm 0 W/m2
22:45 14.9 °C 14.8 °C 1018.8 hPa SSE 17.2 km/h 25.6 km/h 99% 2.3 mm 0 W/m2
22:51 14.9 °C 14.8 °C 1018.8 hPa SSE 11.1 km/h 25.6 km/h 99% 2.3 mm 0 W/m2
22:57 14.9 °C 14.8 °C 1018.5 hPa SSE 15.8 km/h 34.3 km/h 99% 2.8 mm 0 W/m2
23:03 15.0 °C 14.8 °C 1018.2 hPa South 13.4 km/h 34.3 km/h 99% 2.8 mm 0 W/m2
23:09 15.0 °C 14.8 °C 1018.2 hPa SSE 13.4 km/h 30.6 km/h 99% 3.0 mm 0 W/m2
23:15 15.0 °C 14.8 °C 1017.8 hPa SSE 14.8 km/h 30.6 km/h 99% 2.8 mm 0 W/m2
23:21 15.1 °C 14.9 °C 1017.8 hPa SSE 12.2 km/h 27.0 km/h 99% 2.8 mm 0 W/m2
23:27 15.0 °C 14.8 °C 1017.8 hPa SSE 13.4 km/h 27.0 km/h 99% 2.0 mm 0 W/m2
23:33 15.0 °C 14.8 °C 1017.5 hPa SSE 13.4 km/h 29.4 km/h 99% 2.3 mm 0 W/m2
23:40 15.1 °C 14.9 °C 1017.2 hPa SSE 3.5 km/h 29.4 km/h 99% 2.8 mm 0 W/m2
23:46 15.1 °C 14.9 °C 1017.2 hPa SSE 15.8 km/h 23.3 km/h 99% 2.8 mm 0 W/m2
23:52 15.0 °C 14.8 °C 1017.5 hPa SSE 9.7 km/h 27.0 km/h 99% 3.0 mm 0 W/m2
23:58 14.9 °C 14.8 °C 1017.8 hPa ESE 7.2 km/h 25.6 km/h 99% 2.8 mm 0 W/m2
Northern Hawkes Bay. New Zealand Historic Data
Compliments of Weather Underground - 2 mb